Time;durP1;ratioP1;P1;durP2;ratioP2;P2;SDS_P1;SDS_P2;PMS_P1;PMS_P2;Temp;Humidity;BMP_temperature;BMP_pressure;BME280_temperature;BME280_humidity;BME280_pressure;Samples;Min_cycle;Max_cycle;Signal;HPM_P1;HPM_P2
2023/05/07 00:01:07;;;;;;;;;;;;;;;6.48;82.94;101116.20;102547;278;97315;-56
2023/05/07 00:03:45;;;;;;;;;;;;;;;6.52;83.02;101119.95;102498;279;120103;-56
2023/05/07 00:06:20;;;;;;;;;;;;;;;6.53;82.98;101121.98;102494;278;105100;-53
2023/05/07 00:08:57;;;;;;;;;;;;;;;6.52;82.82;101119.19;102510;278;114420;-53
2023/05/07 00:11:31;;;;;;;;;;;;;;;6.53;82.88;101121.63;102507;278;95986;-56
2023/05/07 00:14:08;;;;;;;;;;;;;;;6.48;83.02;101123.58;102531;278;96735;-55
2023/05/07 00:16:45;;;;;;;;;;;;;;;6.45;83.06;101122.06;102522;278;120177;-55
2023/05/07 00:19:17;;;;;;;;;;;;;;;6.47;83.00;101121.66;102490;270;105993;-54
2023/05/07 00:21:53;;;;;;;;;;;;;;;6.48;83.07;101125.66;102485;278;115000;-55
2023/05/07 00:24:30;;;;;;;;;;;;;;;6.43;83.16;101121.73;102489;278;94807;-55
2023/05/07 00:27:10;;;;;;;;;;;;;;;6.40;82.79;101125.57;102551;279;97741;-54
2023/05/07 00:29:43;;;;;;;;;;;;;;;6.33;82.99;101128.21;102514;279;121117;-52
2023/05/07 00:32:19;;;;;;;;;;;;;;;6.25;82.98;101131.10;102546;278;105811;-54
2023/05/07 00:34:55;;;;;;;;;;;;;;;6.21;83.12;101135.77;102498;278;113975;-53
2023/05/07 00:37:29;;;;;;;;;;;;;;;6.20;83.09;101134.09;102501;278;96523;-55
2023/05/07 00:40:08;;;;;;;;;;;;;;;6.24;83.06;101133.40;102530;279;97197;-56
2023/05/07 00:42:46;;;;;;;;;;;;;;;6.20;83.30;101137.18;102519;278;119884;-53
2023/05/07 00:45:24;;;;;;;;;;;;;;;6.19;83.37;101136.54;102494;278;105836;-53
2023/05/07 00:47:58;;;;;;;;;;;;;;;6.22;83.32;101140.89;102510;278;114350;-54
2023/05/07 00:50:32;;;;;;;;;;;;;;;6.21;83.37;101143.48;102518;279;95280;-55
2023/05/07 00:53:07;;;;;;;;;;;;;;;6.19;83.32;101147.98;102514;278;97610;-55
2023/05/07 00:55:43;;;;;;;;;;;;;;;6.19;83.47;101158.77;102495;279;119994;-54
2023/05/07 00:58:18;;;;;;;;;;;;;;;6.15;83.70;101163.95;102489;278;105706;-54
2023/05/07 01:00:58;;;;;;;;;;;;;;;6.15;83.69;101165.19;102489;278;115356;-55
2023/05/07 01:03:34;;;;;;;;;;;;;;;6.17;83.58;101168.60;102521;279;96430;-53
2023/05/07 01:06:12;;;;;;;;;;;;;;;6.16;83.79;101167.45;102524;279;97598;-56
2023/05/07 01:08:52;;;;;;;;;;;;;;;6.15;83.80;101169.14;102515;278;120476;-56
2023/05/07 01:11:34;;;;;;;;;;;;;;;6.16;83.83;101171.70;102530;278;105623;-54
2023/05/07 01:14:11;;;;;;;;;;;;;;;6.17;83.64;101166.27;102490;278;114045;-54
2023/05/07 01:16:47;;;;;;;;;;;;;;;6.20;83.63;101163.98;102508;278;96888;-56
2023/05/07 01:19:26;;;;;;;;;;;;;;;6.19;83.81;101167.15;102519;278;97203;-56
2023/05/07 01:22:08;;;;;;;;;;;;;;;6.15;83.78;101161.45;102453;278;121515;-55
2023/05/07 01:24:43;;;;;;;;;;;;;;;6.14;83.79;101164.16;102553;278;105724;-55
2023/05/07 01:27:19;;;;;;;;;;;;;;;6.13;83.97;101162.89;102540;278;113207;-57
2023/05/07 01:29:55;;;;;;;;;;;;;;;6.11;83.91;101164.81;102487;278;97054;-56
2023/05/07 01:32:34;;;;;;;;;;;;;;;6.08;83.97;101159.27;102506;279;96570;-57
2023/05/07 01:35:12;;;;;;;;;;;;;;;6.10;83.96;101162.41;102453;278;121105;-57
2023/05/07 01:37:49;;;;;;;;;;;;;;;6.06;84.34;101168.52;102519;278;105947;-55
2023/05/07 01:40:25;;;;;;;;;;;;;;;6.03;84.27;101171.64;102480;278;114313;-56
2023/05/07 01:42:57;;;;;;;;;;;;;;;6.08;84.35;101171.22;102535;278;96365;-57
2023/05/07 01:45:33;;;;;;;;;;;;;;;6.07;84.35;101169.64;102548;278;97096;-54
2023/05/07 01:48:11;;;;;;;;;;;;;;;6.03;84.58;101172.04;102509;279;120925;-54
2023/05/07 01:50:46;;;;;;;;;;;;;;;6.00;84.66;101177.47;102528;278;105432;-55
2023/05/07 01:53:21;;;;;;;;;;;;;;;6.02;84.61;101170.28;102486;278;114951;-55
2023/05/07 01:55:55;;;;;;;;;;;;;;;6.00;84.68;101171.82;102453;279;95425;-54
2023/05/07 01:58:30;;;;;;;;;;;;;;;5.97;84.82;101169.90;102495;279;97582;-54
2023/05/07 02:01:07;;;;;;;;;;;;;;;5.98;84.91;101170.70;102469;278;120898;-57
2023/05/07 02:03:43;;;;;;;;;;;;;;;5.99;84.90;101166.52;102386;279;105098;-57
2023/05/07 02:06:17;;;;;;;;;;;;;;;5.98;85.09;101161.23;102435;267;114678;-56
2023/05/07 02:08:57;;;;;;;;;;;;;;;5.98;85.06;101164.50;102486;278;96393;-55
2023/05/07 02:11:31;;;;;;;;;;;;;;;5.95;85.05;101162.18;102521;279;96585;-56
2023/05/07 02:14:08;;;;;;;;;;;;;;;5.90;85.34;101166.02;102453;278;119701;-56
2023/05/07 02:16:42;;;;;;;;;;;;;;;5.89;85.52;101164.39;102499;278;105637;-56
2023/05/07 02:19:20;;;;;;;;;;;;;;;5.84;85.63;101162.31;102512;279;114573;-56
2023/05/07 02:21:58;;;;;;;;;;;;;;;5.82;85.49;101158.00;102501;278;97005;-52
2023/05/07 02:24:33;;;;;;;;;;;;;;;5.82;85.44;101161.73;102502;278;99792;-54
2023/05/07 02:27:10;;;;;;;;;;;;;;;5.86;85.29;101164.09;102509;278;121366;-54
2023/05/07 02:29:48;;;;;;;;;;;;;;;5.84;85.17;101165.67;102496;278;106617;-54
2023/05/07 02:32:23;;;;;;;;;;;;;;;5.85;85.38;101167.25;102469;278;112691;-54
2023/05/07 02:35:00;;;;;;;;;;;;;;;5.87;85.25;101168.11;102475;279;96893;-54
2023/05/07 02:37:33;;;;;;;;;;;;;;;5.91;85.32;101169.95;102514;278;96815;-56
2023/05/07 02:40:10;;;;;;;;;;;;;;;5.87;85.39;101169.92;102448;278;121422;-57
2023/05/07 02:42:45;;;;;;;;;;;;;;;5.81;85.68;101170.98;102497;279;105717;-56
2023/05/07 02:45:19;;;;;;;;;;;;;;;5.82;85.50;101170.92;102480;279;113490;-56
2023/05/07 02:47:58;;;;;;;;;;;;;;;5.79;85.63;101173.13;102453;279;97226;-54
2023/05/07 02:50:32;;;;;;;;;;;;;;;5.77;85.63;101173.35;102500;279;97799;-54
2023/05/07 02:53:06;;;;;;;;;;;;;;;5.80;85.73;101173.73;102435;279;120513;-53
2023/05/07 02:55:40;;;;;;;;;;;;;;;5.80;85.63;101180.35;102509;279;105974;-55
2023/05/07 02:58:20;;;;;;;;;;;;;;;5.79;85.52;101175.63;102445;279;113120;-56
2023/05/07 03:00:54;;;;;;;;;;;;;;;5.80;85.65;101186.11;102494;279;95818;-53
2023/05/07 03:03:33;;;;;;;;;;;;;;;5.75;85.66;101184.38;102500;279;97999;-54
2023/05/07 03:06:06;;;;;;;;;;;;;;;5.76;85.67;101184.52;102475;279;120390;-57
2023/05/07 03:08:41;;;;;;;;;;;;;;;5.73;85.88;101188.73;102404;280;105458;-56
2023/05/07 03:11:18;;;;;;;;;;;;;;;5.74;85.66;101191.63;102476;279;114034;-56
2023/05/07 03:13:55;;;;;;;;;;;;;;;5.78;85.58;101194.37;102470;279;97309;-56
2023/05/07 03:16:33;;;;;;;;;;;;;;;5.78;85.68;101193.75;102442;279;96961;-56
2023/05/07 03:19:10;;;;;;;;;;;;;;;5.81;85.46;101191.52;102456;279;121080;-54
2023/05/07 03:21:47;;;;;;;;;;;;;;;5.79;85.56;101198.55;102461;279;105923;-56
2023/05/07 03:24:27;;;;;;;;;;;;;;;5.81;85.67;101198.85;102007;279;518208;-56
2023/05/07 03:27:02;;;;;;;;;;;;;;;5.84;85.66;101204.14;102413;279;96115;-54
2023/05/07 03:29:38;;;;;;;;;;;;;;;5.89;85.55;101203.70;102469;279;95145;-54
2023/05/07 03:32:17;;;;;;;;;;;;;;;5.93;85.39;101208.34;102461;279;119109;-56
2023/05/07 03:34:52;;;;;;;;;;;;;;;5.94;85.52;101210.77;102440;279;105102;-56
2023/05/07 03:37:25;;;;;;;;;;;;;;;5.88;85.56;101217.73;102433;279;113852;-56
2023/05/07 03:40:05;;;;;;;;;;;;;;;5.86;85.50;101218.60;102423;279;97317;-55
2023/05/07 03:42:41;;;;;;;;;;;;;;;5.81;85.80;101224.27;102437;279;97726;-53
2023/05/07 03:45:17;;;;;;;;;;;;;;;5.82;85.79;101226.89;102388;279;121210;-52
2023/05/07 03:47:54;;;;;;;;;;;;;;;5.85;85.73;101229.83;102417;279;103454;-53
2023/05/07 03:50:28;;;;;;;;;;;;;;;5.87;85.63;101232.09;102432;279;114221;-53
2023/05/07 03:53:04;;;;;;;;;;;;;;;5.88;85.91;101232.19;102399;279;96693;-53
2023/05/07 03:55:37;;;;;;;;;;;;;;;5.86;85.88;101234.75;102405;279;97140;-54
2023/05/07 03:58:14;;;;;;;;;;;;;;;5.92;85.83;101242.07;102446;279;119272;-54
2023/05/07 04:00:50;;;;;;;;;;;;;;;5.92;86.01;101245.42;102362;279;104707;-54
2023/05/07 04:03:29;;;;;;;;;;;;;;;5.87;86.00;101244.13;102383;279;114011;-55
2023/05/07 04:06:02;;;;;;;;;;;;;;;5.89;85.92;101246.98;102411;279;97199;-52
2023/05/07 04:08:39;;;;;;;;;;;;;;;5.98;85.84;101250.27;102412;279;96546;-53
2023/05/07 04:11:13;;;;;;;;;;;;;;;5.99;86.03;101251.66;102434;279;120932;-55
2023/05/07 04:13:50;;;;;;;;;;;;;;;5.94;86.03;101256.45;102429;279;106008;-53
2023/05/07 04:16:27;;;;;;;;;;;;;;;5.98;85.90;101259.41;102362;279;114672;-53
2023/05/07 04:19:05;;;;;;;;;;;;;;;6.01;85.72;101263.37;102360;283;97283;-52
2023/05/07 04:21:42;;;;;;;;;;;;;;;6.00;86.06;101262.59;102446;279;97258;-53
2023/05/07 04:24:17;;;;;;;;;;;;;;;6.01;85.95;101266.25;102387;279;121171;-53
2023/05/07 04:26:52;;;;;;;;;;;;;;;5.98;86.03;101266.21;102463;279;104848;-53
2023/05/07 04:29:28;;;;;;;;;;;;;;;5.96;85.91;101267.39;102426;279;114597;-53
2023/05/07 04:32:05;;;;;;;;;;;;;;;5.97;86.10;101270.05;102497;279;95853;-55
2023/05/07 04:34:38;;;;;;;;;;;;;;;5.98;85.84;101270.45;102491;279;98268;-54
2023/05/07 04:37:14;;;;;;;;;;;;;;;6.04;85.81;101272.59;102467;279;120404;-53
2023/05/07 04:39:49;;;;;;;;;;;;;;;6.07;85.85;101271.48;102485;279;105314;-53
2023/05/07 04:42:24;;;;;;;;;;;;;;;6.08;85.90;101279.21;102504;279;112626;-55
2023/05/07 04:44:58;;;;;;;;;;;;;;;6.11;86.02;101279.11;102425;279;95019;-55
2023/05/07 04:47:36;;;;;;;;;;;;;;;6.09;85.97;101276.96;102375;279;96706;-53
2023/05/07 04:50:10;;;;;;;;;;;;;;;6.18;85.71;101278.42;102419;279;119797;-54
2023/05/07 04:52:53;;;;;;;;;;;;;;;6.26;85.86;101285.59;102447;279;105392;-55
2023/05/07 04:55:38;;;;;;;;;;;;;;;6.27;85.78;101283.15;102461;279;115120;-54
2023/05/07 04:58:12;;;;;;;;;;;;;;;6.43;85.71;101284.55;102475;279;94947;-55
2023/05/07 05:00:46;;;;;;;;;;;;;;;6.59;85.54;101288.27;102495;279;97173;-54
2023/05/07 05:03:20;;;;;;;;;;;;;;;6.62;85.48;101291.41;102463;279;119657;-54
2023/05/07 05:05:59;;;;;;;;;;;;;;;6.62;85.33;101289.92;102469;279;104313;-55
2023/05/07 05:08:36;;;;;;;;;;;;;;;6.70;85.14;101290.98;102429;279;114474;-54
2023/05/07 05:11:11;;;;;;;;;;;;;;;6.72;85.13;101297.26;102449;279;97189;-53
2023/05/07 05:13:49;;;;;;;;;;;;;;;6.84;84.97;101294.16;102467;279;97974;-53
2023/05/07 05:16:25;;;;;;;;;;;;;;;6.88;84.85;101298.09;102389;279;121196;-54
2023/05/07 05:19:04;;;;;;;;;;;;;;;6.84;84.77;101299.16;102488;279;104852;-54
2023/05/07 05:21:42;;;;;;;;;;;;;;;6.81;84.94;101301.07;102466;279;114624;-53
2023/05/07 05:24:18;;;;;;;;;;;;;;;6.91;84.87;101303.68;102428;279;96603;-52
2023/05/07 05:26:53;;;;;;;;;;;;;;;7.07;84.68;101308.95;102503;279;97355;-56
2023/05/07 05:29:31;;;;;;;;;;;;;;;7.15;84.57;101307.97;102450;279;119207;-56
2023/05/07 05:32:15;;;;;;;;;;;;;;;7.24;84.29;101309.87;102412;279;105689;-56
2023/05/07 05:34:50;;;;;;;;;;;;;;;7.15;83.96;101313.57;102477;279;114543;-55
2023/05/07 05:37:26;;;;;;;;;;;;;;;7.12;83.94;101312.89;102458;279;94565;-53
2023/05/07 05:40:00;;;;;;;;;;;;;;;7.15;83.79;101307.42;102512;279;98595;-53
2023/05/07 05:42:33;;;;;;;;;;;;;;;7.15;83.79;101307.59;102473;279;120820;-53
2023/05/07 05:45:10;;;;;;;;;;;;;;;7.13;83.73;101308.88;102453;279;105288;-53
2023/05/07 05:47:44;;;;;;;;;;;;;;;7.15;83.62;101316.42;102468;279;115580;-56
2023/05/07 05:50:18;;;;;;;;;;;;;;;7.13;83.67;101322.88;102450;279;96676;-56
2023/05/07 05:52:53;;;;;;;;;;;;;;;7.03;83.47;101325.64;102460;279;96986;-52
2023/05/07 05:55:32;;;;;;;;;;;;;;;7.04;83.56;101332.16;102467;279;121486;-54
2023/05/07 05:58:07;;;;;;;;;;;;;;;7.03;83.51;101333.64;102468;279;105678;-55
2023/05/07 06:00:42;;;;;;;;;;;;;;;7.01;83.57;101345.45;102468;279;114382;-53
2023/05/07 06:03:18;;;;;;;;;;;;;;;6.97;83.51;101344.42;102496;279;97227;-51
2023/05/07 06:05:52;;;;;;;;;;;;;;;7.00;83.41;101345.23;102478;279;97414;-55
2023/05/07 06:08:30;;;;;;;;;;;;;;;7.06;83.48;101346.27;102465;279;121396;-56
2023/05/07 06:11:08;;;;;;;;;;;;;;;6.99;83.37;101348.77;102527;279;105479;-54
2023/05/07 06:13:44;;;;;;;;;;;;;;;6.92;83.12;101351.79;102505;279;114143;-53
2023/05/07 06:16:23;;;;;;;;;;;;;;;6.95;82.95;101356.44;102501;279;96724;-52
2023/05/07 06:18:56;;;;;;;;;;;;;;;7.05;82.96;101358.75;102515;279;97824;-53
2023/05/07 06:21:35;;;;;;;;;;;;;;;7.11;82.92;101360.52;102492;279;119479;-56
2023/05/07 06:24:09;;;;;;;;;;;;;;;7.22;82.87;101358.41;102496;279;105749;-56
2023/05/07 06:26:43;;;;;;;;;;;;;;;7.35;82.93;101365.23;102493;279;113421;-55
2023/05/07 06:29:23;;;;;;;;;;;;;;;7.37;82.72;101365.33;102487;279;94840;-56
2023/05/07 06:32:12;;;;;;;;;;;;;;;7.44;82.41;101365.55;102506;279;97263;-53
2023/05/07 06:34:48;;;;;;;;;;;;;;;7.49;82.40;101358.80;102474;279;121374;-54
2023/05/07 06:37:24;;;;;;;;;;;;;;;7.57;82.29;101358.44;102491;279;106071;-55
2023/05/07 06:39:59;;;;;;;;;;;;;;;7.57;82.23;101354.24;102466;279;114503;-57
2023/05/07 06:42:31;;;;;;;;;;;;;;;7.64;82.14;101355.41;102504;279;95086;-53
2023/05/07 06:45:04;;;;;;;;;;;;;;;7.55;82.05;101356.95;102453;279;97214;-53
2023/05/07 06:47:37;;;;;;;;;;;;;;;7.57;82.02;101359.61;102535;279;121011;-53
2023/05/07 06:50:13;;;;;;;;;;;;;;;7.63;81.89;101357.48;102493;279;106537;-53
2023/05/07 06:52:46;;;;;;;;;;;;;;;7.75;81.95;101363.86;102445;279;114438;-56
2023/05/07 06:55:23;;;;;;;;;;;;;;;7.77;81.72;101367.77;102472;279;95411;-55
2023/05/07 06:58:00;;;;;;;;;;;;;;;7.70;81.55;101369.58;102509;279;97077;-56
2023/05/07 07:00:36;;;;;;;;;;;;;;;7.73;81.39;101368.48;102467;279;119698;-53
2023/05/07 07:03:10;;;;;;;;;;;;;;;7.74;81.26;101372.20;102451;279;104150;-54
2023/05/07 07:05:52;;;;;;;;;;;;;;;7.73;81.10;101372.64;102392;279;114016;-54
2023/05/07 07:08:26;;;;;;;;;;;;;;;7.83;81.15;101375.14;102492;279;93712;-54
2023/05/07 07:11:00;;;;;;;;;;;;;;;8.04;80.87;101374.61;102521;279;98088;-56
2023/05/07 07:13:34;;;;;;;;;;;;;;;8.18;80.67;101376.13;102457;279;121451;-57
2023/05/07 07:16:09;;;;;;;;;;;;;;;8.33;80.30;101381.64;102517;279;106208;-55
2023/05/07 07:18:47;;;;;;;;;;;;;;;8.39;80.01;101380.52;102474;279;115119;-54
2023/05/07 07:21:25;;;;;;;;;;;;;;;8.41;79.61;101380.35;102432;279;98048;-54
2023/05/07 07:23:59;;;;;;;;;;;;;;;8.58;79.47;101380.74;102448;279;96678;-54
2023/05/07 07:26:35;;;;;;;;;;;;;;;8.71;79.39;101383.16;102414;279;120295;-54
2023/05/07 07:29:11;;;;;;;;;;;;;;;8.76;78.79;101390.45;102460;279;105453;-55
2023/05/07 07:31:49;;;;;;;;;;;;;;;8.79;78.27;101394.96;102431;279;114356;-55
2023/05/07 07:34:27;;;;;;;;;;;;;;;8.76;78.16;101396.48;102421;279;93095;-56
2023/05/07 07:37:05;;;;;;;;;;;;;;;8.83;77.59;101399.39;102480;279;97499;-53
2023/05/07 07:39:42;;;;;;;;;;;;;;;8.75;77.46;101397.16;102447;279;120976;-54
2023/05/07 07:42:15;;;;;;;;;;;;;;;8.80;77.22;101404.23;102453;279;105650;-56
2023/05/07 07:44:51;;;;;;;;;;;;;;;8.76;76.97;101406.73;102400;279;115223;-55
2023/05/07 07:47:29;;;;;;;;;;;;;;;8.72;76.75;101407.34;102413;279;96301;-53
2023/05/07 07:50:07;;;;;;;;;;;;;;;8.82;77.03;101408.84;102478;279;97108;-53
2023/05/07 07:52:40;;;;;;;;;;;;;;;8.90;76.85;101411.77;102471;279;118678;-56
2023/05/07 07:55:17;;;;;;;;;;;;;;;8.95;76.66;101409.23;102447;272;104480;-57
2023/05/07 07:57:54;;;;;;;;;;;;;;;9.14;76.28;101407.55;102420;279;113296;-54
2023/05/07 08:00:28;;;;;;;;;;;;;;;9.25;76.09;101404.64;102436;279;92975;-56
2023/05/07 08:03:10;;;;;;;;;;;;;;;9.21;75.99;101405.08;102412;279;97530;-56
2023/05/07 08:05:45;;;;;;;;;;;;;;;9.18;75.55;101414.02;102498;279;120323;-54
2023/05/07 08:08:19;;;;;;;;;;;;;;;9.18;74.86;101416.19;102513;279;105535;-53
2023/05/07 08:10:53;;;;;;;;;;;;;;;9.15;74.46;101420.27;102508;279;115004;-55
2023/05/07 08:13:32;;;;;;;;;;;;;;;9.05;74.30;101422.22;102479;279;94763;-54
2023/05/07 08:16:13;;;;;;;;;;;;;;;9.11;74.43;101423.87;102538;279;97353;-57
2023/05/07 08:18:50;;;;;;;;;;;;;;;9.15;74.50;101422.93;102489;279;121216;-56
2023/05/07 08:21:27;;;;;;;;;;;;;;;9.09;74.10;101427.90;102503;279;105372;-54
2023/05/07 08:24:02;;;;;;;;;;;;;;;9.19;73.98;101425.77;102475;279;114816;-54
2023/05/07 08:26:35;;;;;;;;;;;;;;;9.52;74.05;101428.62;102496;279;93343;-55
2023/05/07 08:29:08;;;;;;;;;;;;;;;9.83;73.72;101422.02;102386;279;97509;-55
2023/05/07 08:31:43;;;;;;;;;;;;;;;9.98;72.58;101422.68;102504;279;119266;-56
2023/05/07 08:34:21;;;;;;;;;;;;;;;10.00;72.08;101422.15;102482;279;105260;-56
2023/05/07 08:36:55;;;;;;;;;;;;;;;10.14;71.28;101426.65;102460;279;115212;-56
2023/05/07 08:39:29;;;;;;;;;;;;;;;10.58;69.97;101432.05;102444;279;93369;-57
2023/05/07 08:42:07;;;;;;;;;;;;;;;10.70;69.42;101429.59;102503;279;97657;-55
2023/05/07 08:44:48;;;;;;;;;;;;;;;10.54;69.63;101431.70;102464;279;120658;-55
2023/05/07 08:47:30;;;;;;;;;;;;;;;10.36;69.00;101427.25;102482;279;106139;-57
2023/05/07 08:50:08;;;;;;;;;;;;;;;10.06;68.62;101433.59;102465;279;113916;-56
2023/05/07 08:52:41;;;;;;;;;;;;;;;9.93;69.02;101441.47;102458;279;94317;-57
2023/05/07 08:55:15;;;;;;;;;;;;;;;10.04;68.84;101438.47;102463;279;98091;-56
2023/05/07 08:57:52;;;;;;;;;;;;;;;10.53;68.88;101443.67;102482;279;120538;-54
2023/05/07 09:00:26;;;;;;;;;;;;;;;11.50;68.61;101432.27;102468;279;105770;-55
2023/05/07 09:02:58;;;;;;;;;;;;;;;12.08;66.08;101428.95;102522;279;113482;-55
2023/05/07 09:05:35;;;;;;;;;;;;;;;12.75;66.22;101426.42;102504;279;92629;-55
2023/05/07 09:08:09;;;;;;;;;;;;;;;12.66;63.92;101432.23;102489;279;96074;-55
2023/05/07 09:10:45;;;;;;;;;;;;;;;12.01;64.76;101439.73;102539;279;120629;-54
2023/05/07 09:13:21;;;;;;;;;;;;;;;11.67;64.78;101448.41;102470;279;105473;-54
2023/05/07 09:15:55;;;;;;;;;;;;;;;11.56;64.99;101447.36;102502;279;114292;-55
2023/05/07 09:18:33;;;;;;;;;;;;;;;11.64;64.56;101449.85;102479;279;95078;-55
2023/05/07 09:21:07;;;;;;;;;;;;;;;11.67;64.32;101453.31;102514;279;97236;-55
2023/05/07 09:23:43;;;;;;;;;;;;;;;11.56;64.45;101443.73;102504;279;121374;-56
2023/05/07 09:26:18;;;;;;;;;;;;;;;11.53;64.29;101445.48;102496;279;105027;-55
2023/05/07 09:28:54;;;;;;;;;;;;;;;11.69;63.67;101448.71;102514;279;115175;-53
2023/05/07 09:31:32;;;;;;;;;;;;;;;12.05;62.93;101451.12;102527;279;94101;-54
2023/05/07 09:34:07;;;;;;;;;;;;;;;12.09;62.09;101447.63;102497;279;97536;-55
2023/05/07 09:36:44;;;;;;;;;;;;;;;12.21;61.96;101453.48;102521;279;120265;-55
2023/05/07 09:39:19;;;;;;;;;;;;;;;11.87;60.48;101461.10;102511;279;106359;-55
2023/05/07 09:41:58;;;;;;;;;;;;;;;11.50;61.17;101463.11;102490;279;114066;-57
2023/05/07 09:44:38;;;;;;;;;;;;;;;11.49;61.93;101473.73;102470;279;94895;-57
2023/05/07 09:47:11;;;;;;;;;;;;;;;11.40;61.61;101475.48;102508;279;97822;-53
2023/05/07 09:49:49;;;;;;;;;;;;;;;11.31;61.65;101474.69;102501;279;119841;-55
2023/05/07 09:52:24;;;;;;;;;;;;;;;11.42;61.73;101471.64;102477;279;105651;-56
2023/05/07 09:54:59;;;;;;;;;;;;;;;11.46;60.81;101470.15;102470;279;113003;-56
2023/05/07 09:57:35;;;;;;;;;;;;;;;11.51;60.22;101468.40;102470;279;94419;-55
2023/05/07 10:00:10;;;;;;;;;;;;;;;11.53;60.67;101472.69;102475;279;96717;-57
2023/05/07 10:02:49;;;;;;;;;;;;;;;11.59;59.75;101479.80;102485;279;119340;-54
2023/05/07 10:05:27;;;;;;;;;;;;;;;11.43;58.66;101478.71;102461;279;106209;-54
2023/05/07 10:08:06;;;;;;;;;;;;;;;11.57;59.15;101482.16;102433;279;113631;-55
2023/05/07 10:10:43;;;;;;;;;;;;;;;11.99;59.23;101476.23;102457;279;94391;-54
2023/05/07 10:13:18;;;;;;;;;;;;;;;12.59;58.22;101471.83;102477;279;97700;-55
2023/05/07 10:15:56;;;;;;;;;;;;;;;12.77;57.86;101469.62;102451;279;121019;-55
2023/05/07 10:18:32;;;;;;;;;;;;;;;12.61;57.02;101482.42;102486;279;105015;-55
2023/05/07 10:21:09;;;;;;;;;;;;;;;12.22;55.51;101491.78;102437;279;113686;-54
2023/05/07 10:23:45;;;;;;;;;;;;;;;11.81;55.20;101483.89;102468;279;93067;-55
2023/05/07 10:26:22;;;;;;;;;;;;;;;12.13;55.96;101476.30;102494;279;97234;-54
2023/05/07 10:28:59;;;;;;;;;;;;;;;12.62;55.63;101478.95;102469;279;120610;-54
2023/05/07 10:31:55;;;;;;;;;;;;;;;12.67;55.38;101472.55;102511;279;103650;-55
2023/05/07 10:34:34;;;;;;;;;;;;;;;12.45;55.08;101471.42;102476;279;114479;-55
2023/05/07 10:37:11;;;;;;;;;;;;;;;12.19;55.35;101473.20;102501;279;94891;-57
2023/05/07 10:39:47;;;;;;;;;;;;;;;12.00;55.56;101482.63;102481;279;96668;-57
2023/05/07 10:42:20;;;;;;;;;;;;;;;11.92;56.45;101480.27;102444;279;120866;-54
2023/05/07 10:44:54;;;;;;;;;;;;;;;11.93;56.84;101482.50;102456;279;106405;-54
2023/05/07 10:47:30;;;;;;;;;;;;;;;11.91;57.24;101490.73;102516;279;113414;-57
2023/05/07 10:50:27;;;;;;;;;;;;;;;11.96;57.26;101492.66;102476;279;94250;-57
2023/05/07 10:53:29;;;;;;;;;;;;;;;11.87;57.05;101495.34;102500;279;96466;-56
2023/05/07 10:56:37;;;;;;;;;;;;;;;11.91;56.99;101493.27;102482;279;120290;-57
2023/05/07 10:59:45;;;;;;;;;;;;;;;12.06;56.36;101501.91;102397;280;105649;-58
2023/05/07 11:02:24;;;;;;;;;;;;;;;12.01;55.94;101502.23;102414;280;112938;-57
2023/05/07 11:05:23;;;;;;;;;;;;;;;12.20;55.97;101497.30;102349;280;93501;-58
2023/05/07 11:08:01;;;;;;;;;;;;;;;12.70;55.22;101490.21;102312;280;97233;-55
2023/05/07 11:10:53;;;;;;;;;;;;;;;12.83;54.20;101490.98;102301;268;121312;-56
2023/05/07 11:13:49;;;;;;;;;;;;;;;12.35;53.29;101501.56;102374;280;105305;-56
2023/05/07 11:16:24;;;;;;;;;;;;;;;11.95;54.65;101503.92;102360;280;114422;-54
2023/05/07 11:18:59;;;;;;;;;;;;;;;11.89;54.56;101511.17;102380;280;92966;-52
2023/05/07 11:21:46;;;;;;;;;;;;;;;11.73;54.79;101511.29;102208;280;97679;-53
2023/05/07 11:24:21;;;;;;;;;;;;;;;11.82;55.23;101511.39;101809;280;817226;-54
2023/05/07 11:26:56;;;;;;;;;;;;;;;11.88;55.24;101507.82;102390;280;105603;-54
2023/05/07 11:29:31;;;;;;;;;;;;;;;12.14;55.70;101510.66;102397;280;113213;-54
2023/05/07 11:32:04;;;;;;;;;;;;;;;12.15;54.81;101509.62;102339;280;92529;-57
2023/05/07 11:34:37;;;;;;;;;;;;;;;12.12;54.87;101513.20;102383;280;97329;-56
2023/05/07 11:37:12;;;;;;;;;;;;;;;12.03;54.60;101518.34;102392;280;118992;-56
2023/05/07 11:39:54;;;;;;;;;;;;;;;11.80;54.17;101520.76;102381;280;103523;-56
2023/05/07 11:42:33;;;;;;;;;;;;;;;11.75;54.41;101515.20;102329;280;113233;-54
2023/05/07 11:45:10;;;;;;;;;;;;;;;11.81;54.93;101516.53;102369;280;94325;-53
2023/05/07 11:47:47;;;;;;;;;;;;;;;11.80;54.96;101520.30;102416;280;97873;-56
2023/05/07 11:50:31;;;;;;;;;;;;;;;11.72;55.02;101516.98;102369;280;118958;-57
2023/05/07 11:53:10;;;;;;;;;;;;;;;11.61;55.05;101517.34;102417;280;105836;-56
2023/05/07 11:55:45;;;;;;;;;;;;;;;11.64;55.58;101524.10;102408;280;114933;-54
2023/05/07 11:58:24;;;;;;;;;;;;;;;11.65;55.29;101522.85;102442;279;94966;-54
2023/05/07 12:00:56;;;;;;;;;;;;;;;11.71;55.32;101523.02;102465;279;96630;-57
2023/05/07 12:03:31;;;;;;;;;;;;;;;11.77;55.04;101532.51;102449;268;119210;-55
2023/05/07 12:06:08;;;;;;;;;;;;;;;11.85;54.77;101521.71;102414;279;106315;-56
2023/05/07 12:08:45;;;;;;;;;;;;;;;12.19;54.90;101515.80;102383;279;114206;-56
2023/05/07 12:11:23;;;;;;;;;;;;;;;12.34;53.89;101511.77;102400;279;93446;-54
2023/05/07 12:14:00;;;;;;;;;;;;;;;12.44;54.35;101512.55;102462;279;96365;-55
2023/05/07 12:16:35;;;;;;;;;;;;;;;12.60;54.07;101520.02;102464;279;119793;-52
2023/05/07 12:19:12;;;;;;;;;;;;;;;12.65;54.21;101519.63;102396;279;105425;-54
2023/05/07 12:21:46;;;;;;;;;;;;;;;12.74;53.58;101529.80;102398;279;114865;-53
2023/05/07 12:24:21;;;;;;;;;;;;;;;12.65;53.64;101526.63;102412;279;94966;-54
2023/05/07 12:26:58;;;;;;;;;;;;;;;12.64;53.70;101527.70;102413;279;98021;-55
2023/05/07 12:29:34;;;;;;;;;;;;;;;12.33;53.00;101532.33;102385;279;120648;-54
2023/05/07 12:32:14;;;;;;;;;;;;;;;12.20;53.07;101534.19;102409;279;105303;-57
2023/05/07 12:34:46;;;;;;;;;;;;;;;12.37;53.40;101528.36;102359;279;114545;-56
2023/05/07 12:37:24;;;;;;;;;;;;;;;12.62;53.90;101525.03;102388;279;94647;-56
2023/05/07 12:40:11;;;;;;;;;;;;;;;12.77;53.08;101521.85;102423;279;97716;-56
2023/05/07 12:42:44;;;;;;;;;;;;;;;12.73;52.73;101529.49;102434;279;121015;-54
2023/05/07 12:45:18;;;;;;;;;;;;;;;12.71;52.45;101529.81;102418;279;106285;-54
2023/05/07 12:47:51;;;;;;;;;;;;;;;12.65;51.70;101526.81;102414;279;113062;-54
2023/05/07 12:50:25;;;;;;;;;;;;;;;12.54;52.01;101532.85;102394;279;93151;-55
2023/05/07 12:53:07;;;;;;;;;;;;;;;12.65;52.17;101531.34;102586;279;97399;-57
2023/05/07 12:55:52;;;;;;;;;;;;;;;12.52;51.47;101532.71;102496;279;118180;-55
2023/05/07 12:58:32;;;;;;;;;;;;;;;12.44;51.41;101536.94;102422;279;105686;-57
2023/05/07 13:01:09;;;;;;;;;;;;;;;12.34;51.92;101544.97;102494;268;114691;-54
2023/05/07 13:03:43;;;;;;;;;;;;;;;12.18;51.72;101546.35;102349;281;96290;-56
2023/05/07 13:06:20;;;;;;;;;;;;;;;12.10;52.27;101542.91;102496;279;97638;-54
2023/05/07 13:09:00;;;;;;;;;;;;;;;12.16;52.50;101541.77;102497;279;121310;-53
2023/05/07 13:11:36;;;;;;;;;;;;;;;12.18;52.48;101544.86;102504;279;104837;-56
2023/05/07 13:14:16;;;;;;;;;;;;;;;12.29;52.52;101539.25;102413;279;114196;-56
2023/05/07 13:16:50;;;;;;;;;;;;;;;12.29;52.54;101537.80;102444;279;92383;-54
2023/05/07 13:19:27;;;;;;;;;;;;;;;12.30;52.21;101539.72;102422;279;95421;-54
2023/05/07 13:22:01;;;;;;;;;;;;;;;12.34;52.57;101538.29;102422;279;120935;-55
2023/05/07 13:24:35;;;;;;;;;;;;;;;12.39;52.65;101528.27;102473;268;105881;-55
2023/05/07 13:27:08;;;;;;;;;;;;;;;12.40;52.27;101532.35;102345;279;113989;-56